<?xml version="1.0" encoding="UTF-8" standalone="no" ?>
<gpx xmlns="http://www.topografix.com/GPX/1/1" xmlns:xsi="http://www.w3.org/2001/XMLSchema-instance" xsi:schemaLocation="http://www.topografix.com/GPX/1/1 http://www.topografix.com/GPX/1/1/gpx.xsd" version="1.1" creator="VisuGPX - https://www.visugpx.com">
  <metadata>
    <name>La Vieille- Camping Arlebosc</name>
    <desc><![CDATA[Parcours entre le gîte de La Vieille à Bozas et le Camping  Le Blanchet à Arlebosc.]]></desc>
  </metadata>
  <trk>
    <name><![CDATA[20180411142338-b37bR]]></name>
    <trkseg>
      <trkpt lat="45.04768" lon="4.63143">
        <ele>622</ele>
        <time>2018-04-11T10:16:20Z</time>
      </trkpt>
      <trkpt lat="45.04654" lon="4.62998">
        <ele>609</ele>
        <time>2018-04-11T10:17:20Z</time>
      </trkpt>
      <trkpt lat="45.04484" lon="4.62906">
        <ele>588</ele>
        <time>2018-04-11T10:18:20Z</time>
      </trkpt>
      <trkpt lat="45.04371" lon="4.62842">
        <ele>580</ele>
        <time>2018-04-11T10:19:20Z</time>
      </trkpt>
      <trkpt lat="45.04356" lon="4.62917">
        <ele>578</ele>
        <time>2018-04-11T10:20:20Z</time>
      </trkpt>
      <trkpt lat="45.04133" lon="4.62929">
        <ele>551</ele>
        <time>2018-04-11T10:21:20Z</time>
      </trkpt>
      <trkpt lat="45.04268" lon="4.62986">
        <ele>563</ele>
        <time>2018-04-11T10:22:20Z</time>
      </trkpt>
      <trkpt lat="45.04138" lon="4.63108">
        <ele>539</ele>
        <time>2018-04-11T10:23:20Z</time>
      </trkpt>
      <trkpt lat="45.04032" lon="4.63159">
        <ele>520</ele>
        <time>2018-04-11T10:24:20Z</time>
      </trkpt>
      <trkpt lat="45.04118" lon="4.63042">
        <ele>533</ele>
        <time>2018-04-11T10:25:20Z</time>
      </trkpt>
      <trkpt lat="45.04032" lon="4.63065">
        <ele>522</ele>
        <time>2018-04-11T10:26:20Z</time>
      </trkpt>
      <trkpt lat="45.0395" lon="4.63111">
        <ele>511</ele>
        <time>2018-04-11T10:27:20Z</time>
      </trkpt>
      <trkpt lat="45.03887" lon="4.6321">
        <ele>498</ele>
        <time>2018-04-11T10:28:20Z</time>
      </trkpt>
      <trkpt lat="45.0383" lon="4.63304">
        <ele>489</ele>
        <time>2018-04-11T10:29:20Z</time>
      </trkpt>
      <trkpt lat="45.03866" lon="4.63356">
        <ele>490</ele>
        <time>2018-04-11T10:30:20Z</time>
      </trkpt>
      <trkpt lat="45.03831" lon="4.63463">
        <ele>481</ele>
        <time>2018-04-11T10:31:20Z</time>
      </trkpt>
      <trkpt lat="45.03808" lon="4.63534">
        <ele>483</ele>
        <time>2018-04-11T10:32:20Z</time>
      </trkpt>
      <trkpt lat="45.03794" lon="4.63695">
        <ele>487</ele>
        <time>2018-04-11T10:33:20Z</time>
      </trkpt>
      <trkpt lat="45.0381" lon="4.63815">
        <ele>491</ele>
        <time>2018-04-11T10:34:20Z</time>
      </trkpt>
      <trkpt lat="45.03783" lon="4.63894">
        <ele>494</ele>
        <time>2018-04-11T10:35:20Z</time>
      </trkpt>
      <trkpt lat="45.03747" lon="4.63973">
        <ele>489</ele>
        <time>2018-04-11T10:36:20Z</time>
      </trkpt>
      <trkpt lat="45.0375" lon="4.6407">
        <ele>494</ele>
        <time>2018-04-11T10:37:20Z</time>
      </trkpt>
      <trkpt lat="45.03813" lon="4.64172">
        <ele>484</ele>
        <time>2018-04-11T10:38:20Z</time>
      </trkpt>
      <trkpt lat="45.03889" lon="4.64351">
        <ele>478</ele>
        <time>2018-04-11T10:39:20Z</time>
      </trkpt>
      <trkpt lat="45.03905" lon="4.64468">
        <ele>472</ele>
        <time>2018-04-11T10:40:20Z</time>
      </trkpt>
      <trkpt lat="45.03835" lon="4.64404">
        <ele>463</ele>
        <time>2018-04-11T10:41:20Z</time>
      </trkpt>
      <trkpt lat="45.03795" lon="4.64379">
        <ele>455</ele>
        <time>2018-04-11T10:42:20Z</time>
      </trkpt>
      <trkpt lat="45.03734" lon="4.64289">
        <ele>447</ele>
        <time>2018-04-11T10:43:20Z</time>
      </trkpt>
      <trkpt lat="45.03658" lon="4.64279">
        <ele>434</ele>
        <time>2018-04-11T10:44:20Z</time>
      </trkpt>
      <trkpt lat="45.03637" lon="4.64218">
        <ele>438</ele>
        <time>2018-04-11T10:45:20Z</time>
      </trkpt>
      <trkpt lat="45.03599" lon="4.64169">
        <ele>435</ele>
        <time>2018-04-11T10:46:20Z</time>
      </trkpt>
      <trkpt lat="45.0353" lon="4.64166">
        <ele>434</ele>
        <time>2018-04-11T10:47:20Z</time>
      </trkpt>
      <trkpt lat="45.03473" lon="4.64205">
        <ele>422</ele>
        <time>2018-04-11T10:48:20Z</time>
      </trkpt>
      <trkpt lat="45.03447" lon="4.64243">
        <ele>419</ele>
        <time>2018-04-11T10:49:20Z</time>
      </trkpt>
      <trkpt lat="45.03446" lon="4.64294">
        <ele>413</ele>
        <time>2018-04-11T10:50:20Z</time>
      </trkpt>
      <trkpt lat="45.03422" lon="4.64307">
        <ele>411</ele>
        <time>2018-04-11T10:51:20Z</time>
      </trkpt>
      <trkpt lat="45.03332" lon="4.64335">
        <ele>403</ele>
        <time>2018-04-11T10:52:20Z</time>
      </trkpt>
      <trkpt lat="45.03265" lon="4.64346">
        <ele>400</ele>
        <time>2018-04-11T10:53:20Z</time>
      </trkpt>
      <trkpt lat="45.03166" lon="4.64295">
        <ele>380</ele>
        <time>2018-04-11T10:54:20Z</time>
      </trkpt>
      <trkpt lat="45.03101" lon="4.64198">
        <ele>382</ele>
        <time>2018-04-11T10:55:20Z</time>
      </trkpt>
      <trkpt lat="45.03074" lon="4.64312">
        <ele>363</ele>
        <time>2018-04-11T10:56:20Z</time>
      </trkpt>
      <trkpt lat="45.03054" lon="4.64409">
        <ele>363</ele>
        <time>2018-04-11T10:57:20Z</time>
      </trkpt>
      <trkpt lat="45.03034" lon="4.64565">
        <ele>347</ele>
        <time>2018-04-11T10:58:20Z</time>
      </trkpt>
      <trkpt lat="45.02964" lon="4.64672">
        <ele>320</ele>
        <time>2018-04-11T10:59:20Z</time>
      </trkpt>
      <trkpt lat="45.02814" lon="4.64659">
        <ele>328</ele>
        <time>2018-04-11T11:00:20Z</time>
      </trkpt>
      <trkpt lat="45.02712" lon="4.64746">
        <ele>311</ele>
        <time>2018-04-11T11:01:20Z</time>
      </trkpt>
      <trkpt lat="45.02621" lon="4.64728">
        <ele>306</ele>
        <time>2018-04-11T11:02:20Z</time>
      </trkpt>
      <trkpt lat="45.02517" lon="4.64853">
        <ele>306</ele>
        <time>2018-04-11T11:03:20Z</time>
      </trkpt>
      <trkpt lat="45.02441" lon="4.6491">
        <ele>304</ele>
        <time>2018-04-11T11:04:20Z</time>
      </trkpt>
    </trkseg>
  </trk>
</gpx>